CheckWX is a tool to help pilots better visualize weather data.  It is not intended as a substitute for an official pre-flight weather briefing.

15:07:42 UTC

LIBA TAF
Amendola Airport
Foggia, Italy
TAF LIBA 161400Z 1615/1624 31014KT 9999 FEW030 TEMPO 1615/1618 35016G26KT SCT030

Jul-16@
15:00 UTC

Jul-16 @ 15:00 UTC

Jul-17@
00:00 UTC

Jul-17 @ 00:00 UTC

TAF LIBA 161400Z 1615/1624 31014KT 9999 FEW030
Wind
  • 310° at 14 KTS
Cloud Levels
  • Few at 3,000' AGL

Jul-16@
15:00 UTC

Jul-16 @ 15:00 UTC

Jul-16@
18:00 UTC

Jul-16 @ 18:00 UTC

TEMPO 1615/1618 35016G26KT SCT030

Temporary

Temporary Changes expected for less than half the time period

Wind
  • 350° at 16 KTS
  • {Gusting to 26 KTS
Cloud Levels
  • Scattered at 3,000' AGL